createdAt,value
2018-06-25T00:00:34.208Z,15.1
2018-06-25T00:01:35.826Z,15.1
2018-06-25T00:02:37.435Z,15.2
2018-06-25T00:03:39.055Z,15.1
2018-06-25T00:04:40.668Z,15.1
2018-06-25T00:05:42.283Z,15.1
2018-06-25T00:06:43.902Z,15.2
2018-06-25T00:07:45.516Z,15.1
2018-06-25T00:08:47.125Z,15.2
2018-06-25T00:09:48.735Z,15.2
2018-06-25T00:10:50.356Z,15.2
2018-06-25T00:11:51.978Z,15.1
2018-06-25T00:12:53.592Z,15.1
2018-06-25T00:13:55.212Z,15.2
2018-06-25T00:14:56.822Z,15.1
2018-06-25T00:15:59.141Z,15.3
2018-06-25T00:17:00.750Z,15.2
2018-06-25T00:18:02.365Z,15.1
2018-06-25T00:19:03.985Z,15.1
2018-06-25T00:20:05.595Z,15.2
2018-06-25T00:21:07.217Z,15.1
2018-06-25T00:22:08.832Z,15.2
2018-06-25T00:23:10.443Z,15.1
2018-06-25T00:24:12.058Z,15.2
2018-06-25T00:25:13.671Z,15.1
2018-06-25T00:26:15.292Z,15.2
2018-06-25T00:27:16.902Z,15.0
2018-06-25T00:28:18.521Z,15.1
2018-06-25T00:29:20.133Z,15.1
2018-06-25T00:30:21.745Z,15.1
2018-06-25T00:31:23.359Z,15.1
2018-06-25T00:32:24.976Z,15.1
2018-06-25T00:33:26.588Z,15.2
2018-06-25T00:34:28.202Z,15.1
2018-06-25T00:35:29.823Z,15.1
2018-06-25T00:36:31.436Z,15.0
2018-06-25T00:37:33.054Z,15.1
2018-06-25T00:38:34.668Z,15.0
2018-06-25T00:39:36.279Z,15.1
2018-06-25T00:40:37.897Z,15.0
2018-06-25T00:41:39.518Z,15.0
2018-06-25T00:42:41.124Z,15.1
2018-06-25T00:43:42.741Z,15.0
2018-06-25T00:44:44.353Z,15.0
2018-06-25T00:45:45.969Z,15.0
2018-06-25T00:46:47.588Z,15.1
2018-06-25T00:47:49.203Z,15.0
2018-06-25T00:48:50.820Z,15.0
2018-06-25T00:49:52.437Z,15.0
2018-06-25T00:50:54.051Z,14.9
2018-06-25T00:51:55.661Z,15.1
2018-06-25T00:52:57.279Z,15.0
2018-06-25T00:53:58.888Z,15.1
2018-06-25T00:55:00.501Z,15.1
2018-06-25T00:56:02.120Z,15.0
2018-06-25T00:57:03.741Z,15.0
2018-06-25T00:58:05.348Z,15.0
2018-06-25T00:59:06.967Z,15.0
2018-06-25T01:00:08.576Z,15.1
2018-06-25T01:01:10.194Z,14.9
2018-06-25T01:02:11.809Z,15.0
2018-06-25T01:03:13.420Z,15.1
2018-06-25T01:04:15.039Z,15.1
2018-06-25T01:05:16.654Z,15.0
2018-06-25T01:06:18.266Z,15.1
2018-06-25T01:07:20.831Z,15.1
2018-06-25T01:08:22.449Z,15.0
2018-06-25T01:09:24.063Z,15.0
2018-06-25T01:10:25.680Z,15.0
2018-06-25T01:11:27.298Z,15.0
2018-06-25T01:12:28.908Z,15.0
2018-06-25T01:13:30.517Z,15.0
2018-06-25T01:14:32.145Z,15.0
2018-06-25T01:15:33.752Z,14.9
2018-06-25T01:16:35.369Z,15.0
2018-06-25T01:17:36.990Z,14.9
2018-06-25T01:18:38.600Z,15.0
2018-06-25T01:19:40.216Z,15.0
2018-06-25T01:20:41.833Z,15.0
2018-06-25T01:21:43.446Z,15.1
2018-06-25T01:22:45.059Z,15.0
2018-06-25T01:23:46.678Z,14.9
2018-06-25T01:24:48.293Z,14.9
2018-06-25T01:25:49.903Z,15.0
2018-06-25T01:26:51.520Z,14.9
2018-06-25T01:27:53.129Z,15.0
2018-06-25T01:28:54.744Z,14.8
2018-06-25T01:29:56.363Z,14.9
2018-06-25T01:30:57.973Z,14.9
2018-06-25T01:31:59.593Z,14.9
2018-06-25T01:33:01.205Z,14.8
2018-06-25T01:34:02.812Z,14.9
2018-06-25T01:35:04.429Z,14.7
2018-06-25T01:36:06.045Z,14.8
2018-06-25T01:37:07.659Z,14.8
2018-06-25T01:38:09.272Z,14.8
2018-06-25T01:39:10.939Z,14.9
2018-06-25T01:40:12.509Z,14.8
2018-06-25T01:41:14.124Z,14.9
2018-06-25T01:42:15.747Z,14.8
2018-06-25T01:43:17.359Z,14.8
2018-06-25T01:44:18.971Z,14.8
2018-06-25T01:45:20.591Z,14.9
2018-06-25T01:46:22.204Z,14.8
2018-06-25T01:47:23.825Z,14.7
2018-06-25T01:48:25.439Z,14.8
2018-06-25T01:49:27.048Z,14.7
2018-06-25T01:50:28.668Z,14.7
2018-06-25T01:51:30.278Z,14.8
2018-06-25T01:52:31.892Z,14.8
2018-06-25T01:53:33.511Z,14.6
2018-06-25T01:54:35.123Z,14.8
2018-06-25T01:55:36.738Z,14.7
2018-06-25T01:56:38.360Z,14.7
2018-06-25T01:57:39.969Z,14.7
2018-06-25T01:58:41.587Z,14.6
2018-06-25T01:59:43.204Z,14.6
2018-06-25T02:00:44.819Z,14.6
2018-06-25T02:01:46.437Z,14.7
2018-06-25T02:02:48.051Z,14.7
2018-06-25T02:03:49.663Z,14.8
2018-06-25T02:04:51.273Z,14.7
2018-06-25T02:05:52.892Z,14.7
2018-06-25T02:06:54.507Z,14.7
2018-06-25T02:07:56.124Z,14.6
2018-06-25T02:08:57.743Z,14.6
2018-06-25T02:09:59.351Z,14.6
2018-06-25T02:11:00.970Z,14.6
2018-06-25T02:12:02.580Z,14.6
2018-06-25T02:13:04.199Z,14.6
2018-06-25T02:14:05.809Z,14.6
2018-06-25T02:15:07.425Z,14.8
2018-06-25T02:16:09.043Z,14.7
2018-06-25T02:17:10.654Z,14.7
2018-06-25T02:18:12.269Z,14.7
2018-06-25T02:19:13.881Z,14.6
2018-06-25T02:20:15.493Z,14.7
2018-06-25T02:21:17.110Z,14.6
2018-06-25T02:22:18.722Z,14.6
2018-06-25T02:23:20.340Z,14.6
2018-06-25T02:24:21.954Z,14.8
2018-06-25T02:25:23.567Z,14.6
2018-06-25T02:26:25.182Z,14.7
2018-06-25T02:27:26.794Z,14.7
2018-06-25T02:28:28.413Z,14.6
2018-06-25T02:29:30.029Z,14.7
2018-06-25T02:30:31.641Z,14.6
2018-06-25T02:31:33.255Z,14.6
2018-06-25T02:32:34.867Z,14.6
2018-06-25T02:33:36.478Z,14.7
2018-06-25T02:34:38.096Z,14.6
2018-06-25T02:35:39.712Z,14.7
2018-06-25T02:36:41.325Z,14.7
2018-06-25T02:37:42.942Z,14.6
2018-06-25T02:38:44.696Z,14.5
2018-06-25T02:39:46.163Z,14.7
2018-06-25T02:40:47.788Z,14.7
2018-06-25T02:41:49.395Z,14.6
2018-06-25T02:42:51.008Z,14.7
2018-06-25T02:43:52.629Z,14.8
2018-06-25T02:44:54.241Z,14.7
2018-06-25T02:45:55.856Z,14.7
2018-06-25T02:46:57.464Z,14.7
2018-06-25T02:47:59.078Z,14.6
2018-06-25T02:49:00.688Z,14.7
2018-06-25T02:50:02.306Z,14.6
2018-06-25T02:51:03.923Z,14.6
2018-06-25T02:52:05.537Z,14.6
2018-06-25T02:53:07.151Z,14.7
2018-06-25T02:54:08.764Z,14.6
2018-06-25T02:55:10.374Z,14.6
2018-06-25T02:56:11.995Z,14.6
2018-06-25T02:57:13.609Z,14.6
2018-06-25T02:58:15.220Z,14.5
2018-06-25T02:59:16.905Z,14.6
2018-06-25T03:00:18.450Z,14.6
2018-06-25T03:01:20.066Z,14.6
2018-06-25T03:02:21.681Z,14.6
2018-06-25T03:03:23.854Z,14.7
2018-06-25T03:04:25.472Z,14.5
2018-06-25T03:05:27.093Z,14.7
2018-06-25T03:06:28.706Z,14.6
2018-06-25T03:07:30.317Z,14.6
2018-06-25T03:08:31.931Z,14.7
2018-06-25T03:09:33.549Z,14.7
2018-06-25T03:10:35.161Z,14.8
2018-06-25T03:11:36.777Z,14.6
2018-06-25T03:12:38.390Z,14.7
2018-06-25T03:13:40.011Z,14.6
2018-06-25T03:14:41.623Z,14.6
2018-06-25T03:15:43.239Z,14.5
2018-06-25T03:16:44.855Z,14.6
2018-06-25T03:17:46.473Z,14.6
2018-06-25T03:18:48.082Z,14.6
2018-06-25T03:19:49.703Z,14.6
2018-06-25T03:20:51.326Z,14.8
2018-06-25T03:21:52.938Z,14.6
2018-06-25T03:22:54.557Z,14.7
2018-06-25T03:23:56.172Z,14.6
2018-06-25T03:24:57.791Z,14.6
2018-06-25T03:25:59.406Z,14.6
2018-06-25T03:27:01.031Z,14.7
2018-06-25T03:28:02.676Z,14.6
2018-06-25T03:29:04.296Z,14.6
2018-06-25T03:30:05.908Z,14.7
2018-06-25T03:31:07.526Z,14.7
2018-06-25T03:32:09.145Z,14.6
2018-06-25T03:33:10.765Z,14.7
2018-06-25T03:34:12.381Z,14.6
2018-06-25T03:35:14.002Z,14.6
2018-06-25T03:36:15.618Z,14.6
2018-06-25T03:37:17.229Z,14.5
2018-06-25T03:38:18.851Z,14.6
2018-06-25T03:39:20.465Z,14.6
2018-06-25T03:40:22.087Z,14.6
2018-06-25T03:41:23.704Z,14.6
2018-06-25T03:42:25.325Z,14.5
2018-06-25T03:43:26.942Z,14.7
2018-06-25T03:44:28.555Z,14.6
2018-06-25T03:45:30.177Z,14.6
2018-06-25T03:46:31.791Z,14.7
2018-06-25T03:47:33.404Z,14.7
2018-06-25T03:48:35.029Z,14.6
2018-06-25T03:49:36.649Z,14.6
2018-06-25T03:50:38.266Z,14.7
2018-06-25T03:51:39.886Z,14.6
2018-06-25T03:52:41.501Z,14.7
2018-06-25T03:53:43.122Z,14.6
2018-06-25T03:54:44.735Z,14.6
2018-06-25T03:55:46.363Z,14.6
2018-06-25T03:56:47.978Z,14.6
2018-06-25T03:57:49.594Z,14.6
2018-06-25T03:58:51.211Z,14.7
2018-06-25T03:59:52.822Z,14.7
2018-06-25T04:00:54.495Z,14.7
2018-06-25T04:01:56.059Z,14.7
2018-06-25T04:02:57.683Z,14.8
2018-06-25T04:03:59.304Z,14.9
2018-06-25T04:05:00.914Z,14.7
2018-06-25T04:06:02.531Z,14.6
2018-06-25T04:07:04.153Z,14.7
2018-06-25T04:08:05.771Z,14.8
2018-06-25T04:09:07.389Z,14.8
2018-06-25T04:10:09.015Z,14.8
2018-06-25T04:11:10.637Z,14.8
2018-06-25T04:12:12.321Z,14.9
2018-06-25T04:13:13.869Z,14.9
2018-06-25T04:14:15.490Z,14.9
2018-06-25T04:15:17.103Z,14.8
2018-06-25T04:16:18.718Z,15.0
2018-06-25T04:17:20.346Z,14.9
2018-06-25T04:18:21.960Z,14.9
2018-06-25T04:19:23.581Z,14.9
2018-06-25T04:20:25.200Z,15.0
2018-06-25T04:21:26.819Z,15.0
2018-06-25T04:22:28.440Z,15.0
2018-06-25T04:23:30.061Z,15.1
2018-06-25T04:24:31.683Z,15.0
2018-06-25T04:25:33.306Z,15.0
2018-06-25T04:26:34.926Z,15.0
2018-06-25T04:27:36.547Z,14.9
2018-06-25T04:28:38.167Z,15.1
2018-06-25T04:29:39.802Z,15.1
2018-06-25T04:30:41.465Z,15.1
2018-06-25T04:31:43.028Z,15.1
2018-06-25T04:32:44.651Z,15.1
2018-06-25T04:33:46.269Z,15.1
2018-06-25T04:34:47.886Z,15.1
2018-06-25T04:35:49.510Z,15.2
2018-06-25T04:36:51.128Z,15.2
2018-06-25T04:37:52.753Z,15.2
2018-06-25T04:38:54.376Z,15.2
2018-06-25T04:39:55.993Z,15.3
2018-06-25T04:40:57.610Z,15.2
2018-06-25T04:41:59.227Z,15.3
2018-06-25T04:43:00.843Z,15.3
2018-06-25T04:44:02.467Z,15.3
2018-06-25T04:45:04.086Z,15.3
2018-06-25T04:46:05.711Z,15.4
2018-06-25T04:47:07.325Z,15.4
2018-06-25T04:48:08.945Z,15.3
2018-06-25T04:49:10.566Z,15.3
2018-06-25T04:50:12.181Z,15.3
2018-06-25T04:51:13.803Z,15.3
2018-06-25T04:52:15.419Z,15.3
2018-06-25T04:53:17.038Z,15.3
2018-06-25T04:54:18.667Z,15.3
2018-06-25T04:55:20.279Z,15.2
2018-06-25T04:56:21.904Z,15.3
2018-06-25T04:57:23.520Z,15.2
2018-06-25T04:58:25.144Z,15.3
2018-06-25T04:59:26.767Z,15.4
2018-06-25T05:00:28.392Z,15.2
2018-06-25T05:01:30.011Z,15.3
2018-06-25T05:02:31.625Z,15.3
2018-06-25T05:03:33.247Z,15.3
2018-06-25T05:04:35.544Z,15.3
2018-06-25T05:05:37.161Z,15.3
2018-06-25T05:06:38.788Z,15.5
2018-06-25T05:07:40.407Z,15.4
2018-06-25T05:08:42.034Z,15.4
2018-06-25T05:09:43.657Z,15.3
2018-06-25T05:10:45.272Z,15.3
2018-06-25T05:11:46.892Z,15.3
2018-06-25T05:12:48.513Z,15.3
2018-06-25T05:13:50.136Z,15.2
2018-06-25T05:14:51.754Z,15.3
2018-06-25T05:15:53.380Z,15.2
2018-06-25T05:16:54.994Z,15.2
2018-06-25T05:17:56.615Z,15.3
2018-06-25T05:18:58.237Z,15.3
2018-06-25T05:20:00.830Z,15.3
2018-06-25T05:21:01.492Z,15.3
2018-06-25T05:22:03.128Z,15.3
2018-06-25T05:23:04.753Z,15.4
2018-06-25T05:24:06.372Z,15.4
2018-06-25T05:25:07.987Z,15.4
2018-06-25T05:26:09.610Z,15.5
2018-06-25T05:27:11.226Z,15.5
2018-06-25T05:28:12.849Z,15.4
2018-06-25T05:29:14.529Z,15.5
2018-06-25T05:30:16.048Z,15.6
2018-06-25T05:31:17.664Z,15.7
2018-06-25T05:32:19.287Z,15.6
2018-06-25T05:33:20.905Z,15.7
2018-06-25T05:34:22.530Z,15.7
2018-06-25T05:35:24.144Z,15.7
2018-06-25T05:36:25.770Z,15.7
2018-06-25T05:37:27.387Z,15.7
2018-06-25T05:38:29.009Z,15.7
2018-06-25T05:39:30.633Z,15.8
2018-06-25T05:40:32.300Z,15.8
2018-06-25T05:41:33.913Z,15.7
2018-06-25T05:42:35.536Z,15.8
2018-06-25T05:43:37.158Z,15.7
2018-06-25T05:44:38.781Z,15.9
2018-06-25T05:45:40.400Z,15.9
2018-06-25T05:46:42.024Z,15.9
2018-06-25T05:47:43.648Z,16.0
2018-06-25T05:48:45.316Z,16.0
2018-06-25T05:49:46.882Z,16.0
2018-06-25T05:50:48.501Z,15.9
2018-06-25T05:51:50.127Z,16.0
2018-06-25T05:52:51.742Z,15.9
2018-06-25T05:53:53.365Z,16.0
2018-06-25T05:54:54.983Z,15.9
2018-06-25T05:55:56.608Z,15.9
2018-06-25T05:56:58.224Z,16.0
2018-06-25T05:57:59.851Z,16.0
2018-06-25T05:59:01.517Z,16.0
2018-06-25T06:00:03.090Z,16.0
2018-06-25T06:01:04.707Z,16.1
2018-06-25T06:02:06.329Z,16.1
2018-06-25T06:03:07.947Z,16.0
2018-06-25T06:04:09.572Z,16.0
2018-06-25T06:05:11.194Z,16.2
2018-06-25T06:06:12.813Z,16.1
2018-06-25T06:07:14.436Z,16.1
2018-06-25T06:08:16.051Z,16.2
2018-06-25T06:09:17.676Z,16.1
2018-06-25T06:10:19.292Z,16.2
2018-06-25T06:11:20.916Z,16.3
2018-06-25T06:12:22.534Z,16.2
2018-06-25T06:13:24.159Z,16.3
2018-06-25T06:14:25.776Z,16.3
2018-06-25T06:15:27.393Z,16.2
2018-06-25T06:16:29.017Z,16.3
2018-06-25T06:17:30.640Z,16.3
2018-06-25T06:18:32.256Z,16.2
2018-06-25T06:19:33.883Z,16.3
2018-06-25T06:20:35.500Z,16.2
2018-06-25T06:21:37.116Z,16.3
2018-06-25T06:22:38.743Z,16.4
2018-06-25T06:23:40.361Z,16.3
2018-06-25T06:24:41.983Z,16.4
2018-06-25T06:25:43.606Z,16.5
2018-06-25T06:26:45.228Z,16.4
2018-06-25T06:27:46.846Z,16.6
2018-06-25T06:28:48.473Z,16.6
2018-06-25T06:29:50.091Z,16.7
2018-06-25T06:30:51.718Z,16.6
2018-06-25T06:31:53.344Z,16.6
2018-06-25T06:32:54.961Z,16.7
2018-06-25T06:33:56.584Z,16.7
2018-06-25T06:34:58.203Z,16.7
2018-06-25T06:35:59.820Z,16.7
2018-06-25T06:37:01.438Z,16.8
2018-06-25T06:38:03.062Z,16.8
2018-06-25T06:39:04.683Z,16.8
2018-06-25T06:40:06.347Z,16.7
2018-06-25T06:41:07.927Z,16.7
2018-06-25T06:42:09.550Z,16.8
2018-06-25T06:43:11.171Z,16.8
2018-06-25T06:44:12.796Z,16.9
2018-06-25T06:45:14.408Z,16.8
2018-06-25T06:46:16.031Z,16.8
2018-06-25T06:47:17.651Z,16.8
2018-06-25T06:48:19.272Z,16.9
2018-06-25T06:49:20.900Z,16.8
2018-06-25T06:50:22.513Z,16.9
2018-06-25T06:51:24.187Z,17.0
2018-06-25T06:52:25.761Z,17.0
2018-06-25T06:53:27.382Z,17.1
2018-06-25T06:54:29.006Z,17.1
2018-06-25T06:55:30.628Z,17.1
2018-06-25T06:56:32.249Z,17.1
2018-06-25T06:57:33.907Z,17.3
2018-06-25T06:58:35.488Z,17.4
2018-06-25T06:59:37.110Z,17.3
2018-06-25T07:00:38.729Z,17.4
2018-06-25T07:01:40.351Z,17.3
2018-06-25T07:02:41.978Z,17.2
2018-06-25T07:03:43.596Z,17.2
2018-06-25T07:04:45.257Z,17.3
2018-06-25T07:05:46.837Z,17.1
2018-06-25T07:06:48.463Z,17.2
2018-06-25T07:07:50.079Z,17.2
2018-06-25T07:08:51.704Z,17.3
2018-06-25T07:09:53.323Z,17.2
2018-06-25T07:10:54.943Z,17.2
2018-06-25T07:11:56.566Z,17.2
2018-06-25T07:12:58.186Z,17.1
2018-06-25T07:13:59.808Z,17.2
2018-06-25T07:15:01.433Z,17.2
2018-06-25T07:16:03.051Z,17.2
2018-06-25T07:17:04.679Z,17.4
2018-06-25T07:18:06.300Z,17.3
2018-06-25T07:19:07.913Z,17.4
2018-06-25T07:20:09.541Z,17.5
2018-06-25T07:21:11.160Z,17.9
2018-06-25T07:22:12.783Z,17.8
2018-06-25T07:23:14.404Z,17.8
2018-06-25T07:24:16.031Z,17.9
2018-06-25T07:25:17.656Z,17.8
2018-06-25T07:26:19.275Z,17.6
2018-06-25T07:27:20.900Z,17.7
2018-06-25T07:28:22.517Z,17.5
2018-06-25T07:29:24.138Z,17.6
2018-06-25T07:30:25.764Z,17.5
2018-06-25T07:31:27.385Z,17.5
2018-06-25T07:32:29.017Z,17.4
2018-06-25T07:33:30.639Z,17.6
2018-06-25T07:34:32.259Z,17.7
2018-06-25T07:35:33.878Z,17.7
2018-06-25T07:36:35.503Z,17.7
2018-06-25T07:37:37.127Z,17.8
2018-06-25T07:38:38.748Z,18.0
2018-06-25T07:39:40.371Z,17.9
2018-06-25T07:40:41.997Z,18.1
2018-06-25T07:41:43.622Z,18.2
2018-06-25T07:42:45.246Z,18.4
2018-06-25T07:43:46.868Z,18.6
2018-06-25T07:44:48.495Z,18.8
2018-06-25T07:45:50.117Z,18.8
2018-06-25T07:46:51.742Z,18.9
2018-06-25T07:47:53.359Z,19.0
2018-06-25T07:48:54.984Z,18.9
2018-06-25T07:49:56.603Z,19.1
2018-06-25T07:50:58.221Z,18.9
2018-06-25T07:51:59.846Z,19.0
2018-06-25T07:53:01.467Z,18.9
2018-06-25T07:54:03.087Z,18.9
2018-06-25T07:55:04.712Z,18.8
2018-06-25T07:56:06.325Z,18.7
2018-06-25T07:57:07.951Z,18.7
2018-06-25T07:58:09.569Z,18.6
2018-06-25T07:59:11.190Z,18.6
2018-06-25T08:00:12.818Z,18.6
2018-06-25T08:01:14.442Z,18.7
2018-06-25T08:02:16.065Z,18.4
2018-06-25T08:03:17.683Z,18.3
2018-06-25T08:04:19.305Z,18.4
2018-06-25T08:05:20.927Z,18.4
2018-06-25T08:06:22.547Z,18.3
2018-06-25T08:07:24.174Z,18.6
2018-06-25T08:08:25.801Z,18.5
2018-06-25T08:09:27.433Z,18.7
2018-06-25T08:10:29.075Z,18.6
2018-06-25T08:11:30.664Z,18.8
2018-06-25T08:12:32.289Z,18.9
2018-06-25T08:13:33.912Z,19.0
2018-06-25T08:14:35.538Z,19.1
2018-06-25T08:15:37.161Z,19.2
2018-06-25T08:16:38.836Z,19.2
2018-06-25T08:17:40.395Z,19.3
2018-06-25T08:18:42.019Z,19.4
2018-06-25T08:19:43.646Z,19.3
2018-06-25T08:20:45.271Z,19.4
2018-06-25T08:21:46.888Z,19.2
2018-06-25T08:22:49.370Z,19.1
2018-06-25T08:23:50.988Z,19.1
2018-06-25T08:24:52.611Z,19.1
2018-06-25T08:25:54.230Z,19.1
2018-06-25T08:26:55.849Z,19.1
2018-06-25T08:27:57.479Z,19.1
2018-06-25T08:28:59.104Z,19.2
2018-06-25T08:30:00.873Z,19.2
2018-06-25T08:31:02.346Z,19.2
2018-06-25T08:32:03.971Z,19.1
2018-06-25T08:33:05.595Z,19.1
2018-06-25T08:34:07.291Z,19.0
2018-06-25T08:35:08.834Z,19.0
2018-06-25T08:36:10.458Z,19.0
2018-06-25T08:37:12.079Z,19.1
2018-06-25T08:38:13.706Z,19.0
2018-06-25T08:39:15.328Z,19.1
2018-06-25T08:40:17.034Z,19.3
2018-06-25T08:41:18.578Z,19.4
2018-06-25T08:42:20.205Z,19.4
2018-06-25T08:43:21.852Z,19.7
2018-06-25T08:44:23.454Z,20.0
2018-06-25T08:45:25.074Z,20.5
2018-06-25T08:46:26.698Z,21.3
2018-06-25T08:47:28.322Z,21.9
2018-06-25T08:48:29.948Z,22.2
2018-06-25T08:49:31.575Z,22.4
2018-06-25T08:50:33.206Z,22.6
2018-06-25T08:51:34.889Z,22.7
2018-06-25T08:52:36.460Z,22.8
2018-06-25T08:53:38.083Z,22.9
2018-06-25T08:54:39.702Z,23.0
2018-06-25T08:55:41.327Z,23.2
2018-06-25T08:56:42.955Z,23.7
2018-06-25T08:57:44.577Z,24.2
2018-06-25T08:58:46.217Z,24.3
2018-06-25T08:59:47.834Z,24.4
2018-06-25T09:00:49.458Z,24.4
2018-06-25T09:01:51.087Z,24.3
2018-06-25T09:02:52.711Z,24.3
2018-06-25T09:03:54.334Z,24.3
2018-06-25T09:04:55.960Z,24.1
2018-06-25T09:05:57.589Z,24.2
2018-06-25T09:06:59.210Z,24.2
2018-06-25T09:08:00.840Z,24.4
2018-06-25T09:09:02.463Z,24.5
2018-06-25T09:10:04.091Z,24.4
2018-06-25T09:11:05.716Z,24.3
2018-06-25T09:12:07.343Z,24.1
2018-06-25T09:13:08.975Z,24.0
2018-06-25T09:14:10.598Z,23.9
2018-06-25T09:15:12.252Z,23.8
2018-06-25T09:16:13.856Z,23.8
2018-06-25T09:17:15.476Z,23.8
2018-06-25T09:18:17.104Z,23.9
2018-06-25T09:19:18.738Z,24.1
2018-06-25T09:20:20.366Z,24.2
2018-06-25T09:21:21.992Z,24.2
2018-06-25T09:22:23.617Z,24.1
2018-06-25T09:23:25.244Z,24.3
2018-06-25T09:24:26.864Z,24.3
2018-06-25T09:25:28.496Z,24.3
2018-06-25T09:26:30.127Z,24.2
2018-06-25T09:27:31.803Z,24.0
2018-06-25T09:28:33.380Z,23.9
2018-06-25T09:29:35.000Z,24.0
2018-06-25T09:30:36.621Z,24.0
2018-06-25T09:31:38.253Z,23.9
2018-06-25T09:32:39.878Z,24.0
2018-06-25T09:33:41.514Z,23.8
2018-06-25T09:34:43.140Z,23.7
2018-06-25T09:35:44.757Z,23.7
2018-06-25T09:36:46.385Z,23.7
2018-06-25T09:37:48.009Z,23.5
2018-06-25T09:38:49.633Z,23.5
2018-06-25T09:39:51.259Z,23.5
2018-06-25T09:40:52.962Z,23.8
2018-06-25T09:41:54.522Z,23.9
2018-06-25T09:42:56.143Z,23.8
2018-06-25T09:43:57.772Z,23.7
2018-06-25T09:44:59.399Z,23.6
2018-06-25T09:46:01.050Z,23.6
2018-06-25T09:47:02.728Z,23.7
2018-06-25T09:48:04.279Z,23.5
2018-06-25T09:49:05.901Z,23.5
2018-06-25T09:50:07.529Z,23.5
2018-06-25T09:51:09.155Z,23.2
2018-06-25T09:52:10.773Z,23.0
2018-06-25T09:53:12.397Z,22.8
2018-06-25T09:54:14.018Z,22.6
2018-06-25T09:55:15.638Z,22.3
2018-06-25T09:56:17.262Z,22.2
2018-06-25T09:57:18.889Z,22.0
2018-06-25T09:58:20.508Z,22.0
2018-06-25T09:59:22.137Z,21.9
2018-06-25T10:00:23.763Z,21.7
2018-06-25T10:01:25.378Z,21.5
2018-06-25T10:02:27.005Z,21.4
2018-06-25T10:03:28.668Z,21.4
2018-06-25T10:04:30.249Z,21.4
2018-06-25T10:05:31.875Z,21.5
2018-06-25T10:06:33.495Z,21.6
2018-06-25T10:07:35.118Z,21.8
2018-06-25T10:08:36.748Z,21.9
2018-06-25T10:09:38.372Z,22.0
2018-06-25T10:10:40.051Z,22.3
2018-06-25T10:11:41.624Z,22.7
2018-06-25T10:12:43.251Z,22.9
2018-06-25T10:13:44.878Z,23.2
2018-06-25T10:14:46.497Z,23.4
2018-06-25T10:15:48.122Z,23.6
2018-06-25T10:16:49.757Z,23.8
2018-06-25T10:17:51.378Z,24.2
2018-06-25T10:18:52.999Z,24.3
2018-06-25T10:19:54.628Z,24.3
2018-06-25T10:20:56.248Z,24.2
2018-06-25T10:21:57.870Z,24.0
2018-06-25T10:22:59.499Z,23.6
2018-06-25T10:24:01.125Z,23.5
2018-06-25T10:25:02.745Z,23.3
2018-06-25T10:26:04.364Z,23.0
2018-06-25T10:27:05.989Z,22.9
2018-06-25T10:28:07.652Z,22.8
2018-06-25T10:29:09.235Z,22.5
2018-06-25T10:30:10.863Z,22.4
2018-06-25T10:31:12.486Z,22.4
2018-06-25T10:32:14.110Z,22.4
2018-06-25T10:33:15.738Z,22.4
2018-06-25T10:34:17.359Z,22.3
2018-06-25T10:35:18.979Z,22.3
2018-06-25T10:36:20.607Z,22.3
2018-06-25T10:37:22.226Z,22.2
2018-06-25T10:38:23.851Z,22.1
2018-06-25T10:39:25.479Z,22.2
2018-06-25T10:40:27.095Z,22.0
2018-06-25T10:41:28.720Z,22.1
2018-06-25T10:42:30.372Z,22.0
2018-06-25T10:43:31.971Z,21.9
2018-06-25T10:44:33.595Z,22.0
2018-06-25T10:45:35.225Z,22.1
2018-06-25T10:46:36.849Z,22.2
2018-06-25T10:47:38.467Z,22.4
2018-06-25T10:48:40.102Z,22.6
2018-06-25T10:49:41.723Z,22.7
2018-06-25T10:50:43.354Z,22.8
2018-06-25T10:51:44.978Z,23.0
2018-06-25T10:52:46.601Z,23.2
2018-06-25T10:53:48.231Z,23.3
2018-06-25T10:54:49.851Z,23.5
2018-06-25T10:55:51.478Z,23.7
2018-06-25T10:56:53.098Z,23.7
2018-06-25T10:57:54.727Z,23.8
2018-06-25T10:58:56.357Z,24.2
2018-06-25T10:59:58.047Z,24.3
2018-06-25T11:00:59.632Z,24.1
2018-06-25T11:02:01.228Z,23.8
2018-06-25T11:03:02.853Z,23.6
2018-06-25T11:04:04.477Z,23.6
2018-06-25T11:05:06.099Z,23.7
2018-06-25T11:06:07.734Z,23.9
2018-06-25T11:07:09.395Z,23.7
2018-06-25T11:08:10.990Z,23.7
2018-06-25T11:09:12.617Z,23.7
2018-06-25T11:10:14.237Z,23.7
2018-06-25T11:11:15.868Z,23.8
2018-06-25T11:12:17.488Z,23.9
2018-06-25T11:13:19.118Z,23.8
2018-06-25T11:14:20.741Z,23.6
2018-06-25T11:15:22.373Z,23.5
2018-06-25T11:16:23.994Z,23.4
2018-06-25T11:17:25.610Z,23.1
2018-06-25T11:18:27.237Z,23.1
2018-06-25T11:19:28.856Z,23.0
2018-06-25T11:20:30.485Z,22.9
2018-06-25T11:21:32.113Z,22.7
2018-06-25T11:22:33.736Z,22.8
2018-06-25T11:23:35.357Z,22.8
2018-06-25T11:24:36.975Z,22.7
2018-06-25T11:25:38.596Z,22.6
2018-06-25T11:26:40.255Z,22.4
2018-06-25T11:27:41.886Z,22.3
2018-06-25T11:28:43.475Z,22.4
2018-06-25T11:29:45.103Z,22.4
2018-06-25T11:30:46.728Z,22.5
2018-06-25T11:31:48.348Z,22.8
2018-06-25T11:32:49.971Z,22.9
2018-06-25T11:33:51.596Z,22.9
2018-06-25T11:34:53.220Z,23.1
2018-06-25T11:35:54.851Z,23.4
2018-06-25T11:36:56.480Z,23.7
2018-06-25T11:37:58.104Z,23.8
2018-06-25T11:38:59.729Z,23.9
2018-06-25T11:40:01.349Z,24.2
2018-06-25T11:41:02.979Z,24.5
2018-06-25T11:42:04.609Z,25.0
2018-06-25T11:43:06.236Z,25.4
2018-06-25T11:44:07.867Z,26.0
2018-06-25T11:45:09.490Z,26.6
2018-06-25T11:46:11.113Z,27.2
2018-06-25T11:47:12.738Z,27.3
2018-06-25T11:48:14.365Z,27.7
2018-06-25T11:49:15.996Z,28.4
2018-06-25T11:50:17.622Z,28.9
2018-06-25T11:51:19.259Z,28.8
2018-06-25T11:52:20.884Z,28.7
2018-06-25T11:53:22.511Z,28.4
2018-06-25T11:54:24.143Z,27.7
2018-06-25T11:55:25.773Z,27.8
2018-06-25T11:56:27.406Z,28.0
2018-06-25T11:57:29.034Z,28.0
2018-06-25T11:58:30.661Z,27.9
2018-06-25T11:59:32.294Z,27.8
2018-06-25T12:00:33.925Z,28.0
2018-06-25T12:01:35.568Z,28.2
2018-06-25T12:02:38.126Z,28.5
2018-06-25T12:03:39.668Z,28.3
2018-06-25T12:04:41.296Z,28.2
2018-06-25T12:05:42.928Z,28.2
2018-06-25T12:06:44.558Z,28.2
2018-06-25T12:07:46.185Z,27.9
2018-06-25T12:08:47.816Z,27.7
2018-06-25T12:09:49.445Z,27.8
2018-06-25T12:10:51.077Z,27.7
2018-06-25T12:11:52.704Z,27.6
2018-06-25T12:12:54.339Z,28.0
2018-06-25T12:13:55.961Z,28.1
2018-06-25T12:14:57.597Z,28.1
2018-06-25T12:15:59.219Z,28.1
2018-06-25T12:17:00.850Z,28.3
2018-06-25T12:18:02.482Z,28.4
2018-06-25T12:19:04.138Z,28.3
2018-06-25T12:20:05.806Z,28.4
2018-06-25T12:21:07.377Z,28.6
2018-06-25T12:22:09.020Z,29.2
2018-06-25T12:23:10.719Z,29.7
2018-06-25T12:24:12.262Z,30.0
2018-06-25T12:25:13.889Z,30.4
2018-06-25T12:26:15.527Z,30.8
2018-06-25T12:27:17.160Z,31.1
2018-06-25T12:28:18.795Z,31.1
2018-06-25T12:29:20.425Z,31.5
2018-06-25T12:30:22.061Z,31.3
2018-06-25T12:31:23.693Z,31.5
2018-06-25T12:32:25.326Z,31.8
2018-06-25T12:33:26.961Z,31.8
2018-06-25T12:34:28.593Z,31.6
2018-06-25T12:35:30.226Z,31.7
2018-06-25T12:36:31.862Z,31.4
2018-06-25T12:37:33.511Z,30.8
2018-06-25T12:38:35.130Z,30.6
2018-06-25T12:39:36.766Z,30.3
2018-06-25T12:40:38.400Z,30.0
2018-06-25T12:41:40.036Z,29.8
2018-06-25T12:42:41.667Z,29.6
2018-06-25T12:43:43.299Z,29.3
2018-06-25T12:44:44.926Z,29.3
2018-06-25T12:45:46.556Z,29.4
2018-06-25T12:46:48.191Z,30.1
2018-06-25T12:47:49.824Z,30.4
2018-06-25T12:48:51.458Z,30.4
2018-06-25T12:49:53.094Z,30.8
2018-06-25T12:50:54.717Z,31.0
2018-06-25T12:51:56.351Z,31.5
2018-06-25T12:52:57.980Z,31.6
2018-06-25T12:53:59.623Z,31.9
2018-06-25T12:55:01.246Z,31.9
2018-06-25T12:56:02.874Z,32.2
2018-06-25T12:57:04.556Z,32.1
2018-06-25T12:58:06.141Z,31.4
2018-06-25T12:59:07.774Z,31.1
2018-06-25T13:00:09.411Z,30.8
2018-06-25T13:01:11.043Z,30.6
2018-06-25T13:02:12.681Z,30.5
2018-06-25T13:03:14.312Z,30.6
2018-06-25T13:04:15.935Z,30.4
2018-06-25T13:05:17.570Z,30.9
2018-06-25T13:06:19.197Z,31.5
2018-06-25T13:07:20.831Z,31.7
2018-06-25T13:08:22.459Z,31.5
2018-06-25T13:09:24.098Z,30.7
2018-06-25T13:10:25.725Z,30.6
2018-06-25T13:11:27.352Z,30.5
2018-06-25T13:12:28.989Z,30.3
2018-06-25T13:13:30.620Z,29.9
2018-06-25T13:14:32.257Z,29.5
2018-06-25T13:15:33.880Z,29.4
2018-06-25T13:16:35.515Z,29.4
2018-06-25T13:17:37.143Z,29.9
2018-06-25T13:18:38.775Z,30.3
2018-06-25T13:19:40.405Z,30.6
2018-06-25T13:20:42.068Z,30.8
2018-06-25T13:21:43.669Z,30.6
2018-06-25T13:22:45.299Z,30.6
2018-06-25T13:23:46.935Z,30.4
2018-06-25T13:24:48.570Z,30.2
2018-06-25T13:25:50.239Z,30.2
2018-06-25T13:26:51.831Z,30.0
2018-06-25T13:27:53.465Z,29.6
2018-06-25T13:28:55.087Z,29.4
2018-06-25T13:29:56.715Z,29.2
2018-06-25T13:30:58.365Z,29.3
2018-06-25T13:31:59.981Z,29.3
2018-06-25T13:33:01.612Z,29.1
2018-06-25T13:34:03.242Z,29.1
2018-06-25T13:35:04.867Z,29.4
2018-06-25T13:36:06.502Z,29.5
2018-06-25T13:37:08.128Z,29.7
2018-06-25T13:38:09.807Z,30.2
2018-06-25T13:39:11.409Z,30.5
2018-06-25T13:40:13.024Z,30.6